Time;durP1;ratioP1;P1;durP2;ratioP2;P2;SDS_P1;SDS_P2;PMS_P1;PMS_P2;Temp;Humidity;BMP_temperature;BMP_pressure;BME280_temperature;BME280_humidity;BME280_pressure;Samples;Min_cycle;Max_cycle;Signal;HPM_P1;HPM_P2
2023/07/02 00:00:55;;;;;;;13.75;4.88;;;;;;;-143.48;87.99;118439.88;5075333;28;20020;-72
2023/07/02 00:03:21;;;;;;;16.85;4.90;;;;;;;-143.48;85.62;118439.88;5093511;28;20020;-73
2023/07/02 00:05:49;;;;;;;11.05;5.03;;;;;;;-143.48;89.65;118439.88;5093401;28;20028;-73
2023/07/02 00:08:15;;;;;;;13.48;4.93;;;;;;;-143.48;86.73;118439.88;5075220;28;20055;-72
2023/07/02 00:10:41;;;;;;;21.23;5.85;;;;;;;-143.48;86.11;118439.88;5093339;28;20049;-72
2023/07/02 00:13:06;;;;;;;14.18;5.03;;;;;;;-143.48;84.06;118439.88;5093399;28;20094;-72
2023/07/02 00:15:32;;;;;;;15.40;5.13;;;;;;;-143.48;81.87;118439.88;5093262;28;20364;-71
2023/07/02 00:17:57;;;;;;;18.17;5.70;;;;;;;-143.48;83.22;118439.88;5075247;28;20183;-71
2023/07/02 00:20:22;;;;;;;16.40;5.50;;;;;;;-143.48;82.25;118439.88;5093070;28;20040;-72
2023/07/02 00:22:48;;;;;;;16.30;5.80;;;;;;;-143.48;85.09;118439.88;5093125;28;20538;-72
2023/07/02 00:25:14;;;;;;;17.85;5.50;;;;;;;-143.48;86.96;118439.88;5093118;28;20035;-72
2023/07/02 00:27:40;;;;;;;14.63;5.45;;;;;;;-143.48;84.05;118439.88;5093047;28;20387;-72
2023/07/02 00:30:06;;;;;;;19.40;5.38;;;;;;;-143.48;85.36;118439.88;5093266;28;20058;-72
2023/07/02 00:32:31;;;;;;;15.68;5.78;;;;;;;-143.48;82.41;118439.88;5093141;28;20440;-72
2023/07/02 00:34:56;;;;;;;18.77;5.43;;;;;;;-143.48;83.98;118439.88;5093033;28;20056;-72
2023/07/02 00:37:22;;;;;;;16.40;5.20;;;;;;;-143.48;86.81;118439.88;5074891;28;20060;-73
2023/07/02 00:39:47;;;;;;;14.73;5.15;;;;;;;-143.48;85.28;118439.88;5092933;28;20028;-72
2023/07/02 00:42:14;;;;;;;18.77;6.05;;;;;;;-143.48;87.03;118439.88;5093069;28;20024;-73
2023/07/02 00:44:40;;;;;;;18.63;5.57;;;;;;;-143.48;87.99;118439.88;5093127;28;20027;-73
2023/07/02 00:47:07;;;;;;;19.55;5.95;;;;;;;-143.48;86.46;118439.88;5093326;28;20024;-73
2023/07/02 00:49:33;;;;;;;21.38;6.07;;;;;;;-143.48;86.77;118439.88;5093310;28;20472;-72
2023/07/02 00:51:59;;;;;;;17.35;5.97;;;;;;;-143.48;81.30;118439.88;5093535;28;20085;-72
2023/07/02 00:54:24;;;;;;;18.10;6.05;;;;;;;-143.48;82.85;118439.88;5093281;28;20019;-72
2023/07/02 00:56:50;;;;;;;17.33;6.18;;;;;;;-143.48;85.08;118439.88;5093282;28;20107;-72
2023/07/02 00:59:16;;;;;;;22.08;6.05;;;;;;;-143.48;82.62;118439.88;5075610;28;20433;-72
2023/07/02 01:01:41;;;;;;;21.17;6.40;;;;;;;-143.48;81.70;118439.88;5093723;28;20058;-72
2023/07/02 01:04:12;;;;;;;18.98;6.45;;;;;;;-143.48;80.64;118439.88;5094133;28;20468;-71
2023/07/02 01:06:41;;;;;;;20.33;6.20;;;;;;;-143.48;83.65;118439.88;5087301;28;20036;-71
2023/07/02 01:09:07;;;;;;;18.95;6.32;;;;;;;-143.48;86.27;118439.88;5073888;28;20491;-72
2023/07/02 01:11:38;;;;;;;21.50;6.40;;;;;;;-143.48;86.66;118439.88;5059017;28;20116;-72
2023/07/02 01:14:26;;;;;;;21.88;6.78;;;;;;;-143.48;87.54;118439.88;5076948;28;20062;-72
2023/07/02 01:16:53;;;;;;;20.80;6.47;;;;;;;-143.48;86.15;118439.88;5058740;28;20031;-71
2023/07/02 01:19:25;;;;;;;19.00;6.55;;;;;;;-143.48;85.48;118439.88;5058366;28;20021;-71
2023/07/02 01:21:51;;;;;;;16.03;5.70;;;;;;;-143.48;85.48;118439.88;5076169;28;20052;-72
2023/07/02 01:24:17;;;;;;;15.50;6.22;;;;;;;-143.48;85.03;118439.88;5076609;28;20271;-71
2023/07/02 01:26:42;;;;;;;17.67;6.35;;;;;;;-143.48;85.26;118439.88;5058117;28;20024;-71
2023/07/02 01:29:18;;;;;;;19.98;6.07;;;;;;;-143.48;82.99;118439.88;5075919;28;20020;-71
2023/07/02 01:31:43;;;;;;;22.38;6.90;;;;;;;-143.48;85.00;118439.88;5057787;28;20027;-71
2023/07/02 01:34:09;;;;;;;24.38;6.38;;;;;;;-143.48;84.74;118439.88;5076162;28;20020;-71
2023/07/02 01:36:35;;;;;;;18.67;6.57;;;;;;;-143.48;83.45;118439.88;5075820;28;20028;-71
2023/07/02 01:39:00;;;;;;;23.10;6.38;;;;;;;-143.48;83.44;118439.88;5058249;28;20021;-71
2023/07/02 01:41:25;;;;;;;20.58;6.28;;;;;;;-143.48;84.87;118439.88;5075974;28;20039;-71
2023/07/02 01:43:51;;;;;;;30.02;7.63;;;;;;;-143.48;87.43;118439.88;5057786;28;20396;-71
2023/07/02 01:46:16;;;;;;;20.73;6.70;;;;;;;-143.48;89.62;118439.88;5058013;28;20024;-72
2023/07/02 01:48:41;;;;;;;23.02;6.88;;;;;;;-143.48;86.37;118439.88;5075587;28;20025;-72
2023/07/02 01:51:07;;;;;;;23.48;7.07;;;;;;;-143.48;85.57;118439.88;5075532;28;20027;-71
2023/07/02 01:53:32;;;;;;;23.85;6.50;;;;;;;-143.48;85.93;118439.88;5075324;28;20103;-71
2023/07/02 01:55:57;;;;;;;19.85;6.55;;;;;;;-143.48;86.82;118439.88;5075518;28;20050;-71
2023/07/02 01:58:23;;;;;;;21.52;6.35;;;;;;;-143.48;85.66;118439.88;5075320;28;20038;-72
2023/07/02 02:00:48;;;;;;;21.73;6.30;;;;;;;-143.48;84.04;118439.88;5057347;28;20033;-71
2023/07/02 02:03:14;;;;;;;19.73;6.82;;;;;;;-143.48;86.27;118439.88;5075222;28;20103;-72
2023/07/02 02:05:39;;;;;;;16.83;6.18;;;;;;;-143.48;86.79;118439.88;5075146;28;20058;-71
2023/07/02 02:08:04;;;;;;;21.27;7.38;;;;;;;-143.48;85.51;118439.88;5093737;28;20052;-72
2023/07/02 02:10:30;;;;;;;17.70;5.97;;;;;;;-143.48;83.17;118439.88;5095435;28;20379;-70
2023/07/02 02:12:55;;;;;;;21.52;6.10;;;;;;;-143.48;85.10;118439.88;5095348;28;20050;-72
2023/07/02 02:15:20;;;;;;;20.42;6.68;;;;;;;-143.48;85.79;118439.88;5095169;28;20028;-71
2023/07/02 02:17:45;;;;;;;19.90;6.47;;;;;;;-143.48;87.90;118439.88;5095360;28;20024;-71
2023/07/02 02:20:11;;;;;;;22.17;7.00;;;;;;;-143.48;87.83;118439.88;5094941;28;20020;-72
2023/07/02 02:22:36;;;;;;;21.70;6.68;;;;;;;-143.48;87.23;118439.88;5094469;28;20031;-72
2023/07/02 02:25:03;;;;;;;20.33;6.22;;;;;;;-143.48;87.83;118439.88;5076862;28;20464;-71
2023/07/02 02:27:28;;;;;;;26.25;6.70;;;;;;;-143.48;86.59;118439.88;5094927;28;20101;-71
2023/07/02 02:29:54;;;;;;;21.58;6.60;;;;;;;-143.48;85.58;118439.88;5095075;28;20021;-72
2023/07/02 02:32:21;;;;;;;29.55;6.78;;;;;;;-143.48;82.84;118439.88;5094876;28;20020;-72
2023/07/02 02:34:46;;;;;;;23.10;6.80;;;;;;;-143.48;85.47;118439.88;5076635;28;20028;-72
2023/07/02 02:37:12;;;;;;;20.00;6.85;;;;;;;-143.48;84.21;118439.88;5094888;28;20365;-71
2023/07/02 02:39:37;;;;;;;22.80;6.75;;;;;;;-143.48;84.16;118439.88;5094653;28;20036;-70
2023/07/02 02:42:02;;;;;;;21.05;6.38;;;;;;;-143.48;85.38;118439.88;5076664;28;20069;-71
2023/07/02 02:44:29;;;;;;;22.83;7.07;;;;;;;-143.48;86.77;118439.88;5094665;28;20024;-72
2023/07/02 02:46:54;;;;;;;25.02;7.18;;;;;;;-143.48;85.50;118439.88;5094680;28;20103;-71
2023/07/02 02:49:19;;;;;;;20.00;6.03;;;;;;;-143.48;84.04;118439.88;5094735;28;20126;-72
2023/07/02 02:51:45;;;;;;;20.13;6.40;;;;;;;-143.48;83.34;118439.88;5094541;28;20458;-72
2023/07/02 02:54:10;;;;;;;21.17;6.90;;;;;;;-143.48;83.24;118439.88;5076274;28;20435;-72
2023/07/02 02:56:35;;;;;;;25.10;6.78;;;;;;;-143.48;82.11;118439.88;5076307;28;20047;-73
2023/07/02 02:59:01;;;;;;;22.95;5.88;;;;;;;-143.48;84.03;118439.88;5076086;28;20028;-71
2023/07/02 03:01:30;;;;;;;22.33;6.78;;;;;;;-143.48;85.27;118439.88;5076206;28;20110;-71
2023/07/02 03:03:58;;;;;;;21.92;6.22;;;;;;;-143.48;85.94;118439.88;5094282;28;20117;-72
2023/07/02 03:06:23;;;;;;;26.38;6.60;;;;;;;-143.48;85.91;118439.88;5094353;28;20091;-71
2023/07/02 03:08:49;;;;;;;22.77;6.68;;;;;;;-143.48;86.95;118439.88;5094189;28;20044;-72
2023/07/02 03:11:14;;;;;;;22.42;6.88;;;;;;;-143.48;86.56;118439.88;5094325;28;20028;-72
2023/07/02 03:13:39;;;;;;;24.05;7.15;;;;;;;-143.48;89.03;118439.88;5094235;28;20111;-72
2023/07/02 03:16:05;;;;;;;21.67;7.40;;;;;;;-143.48;88.69;118439.88;5075692;28;20455;-71
2023/07/02 03:18:31;;;;;;;21.67;7.32;;;;;;;-143.48;87.60;118439.88;5094037;28;20028;-71
2023/07/02 03:20:56;;;;;;;19.67;6.40;;;;;;;-143.48;85.27;118439.88;5094181;28;20039;-72
2023/07/02 03:23:22;;;;;;;22.70;7.30;;;;;;;-143.48;85.75;118439.88;5075830;28;20024;-72
2023/07/02 03:25:47;;;;;;;20.02;6.47;;;;;;;-143.48;86.03;118439.88;5093856;28;20103;-72
2023/07/02 03:28:13;;;;;;;20.27;6.47;;;;;;;-143.48;84.82;118439.88;5075774;28;20368;-72
2023/07/02 03:30:38;;;;;;;29.02;7.35;;;;;;;-143.48;85.18;118439.88;5094005;28;20020;-72
2023/07/02 03:33:03;;;;;;;24.05;7.43;;;;;;;-143.48;86.27;118439.88;5092871;28;20486;-72
2023/07/02 03:35:29;;;;;;;23.77;6.95;;;;;;;-143.48;87.64;118439.88;5075567;28;20119;-72
2023/07/02 03:37:54;;;;;;;21.10;6.82;;;;;;;-143.48;87.49;118439.88;5093712;28;20028;-72
2023/07/02 03:40:19;;;;;;;23.73;7.18;;;;;;;-143.48;86.82;118439.88;5093764;28;20025;-71
2023/07/02 03:42:45;;;;;;;21.15;7.07;;;;;;;-143.48;87.08;118439.88;5075588;28;20035;-72
2023/07/02 03:45:10;;;;;;;26.38;7.00;;;;;;;-143.48;88.70;118439.88;5093735;28;20019;-72
2023/07/02 03:47:35;;;;;;;26.65;6.97;;;;;;;-143.48;88.65;118439.88;5093642;28;20024;-72
2023/07/02 03:50:01;;;;;;;27.08;7.10;;;;;;;-143.48;87.86;118439.88;5093519;28;20019;-72
2023/07/02 03:52:27;;;;;;;24.13;7.22;;;;;;;-143.48;87.54;118439.88;5093540;28;20111;-72
2023/07/02 03:54:52;;;;;;;22.05;7.55;;;;;;;-143.48;88.58;118439.88;5093397;28;20024;-72
2023/07/02 03:57:17;;;;;;;21.83;7.32;;;;;;;-143.48;86.30;118439.88;5093446;28;20368;-72
2023/07/02 03:59:43;;;;;;;20.88;7.10;;;;;;;-143.48;86.26;118439.88;5093438;28;20111;-72
2023/07/02 04:02:08;;;;;;;29.17;7.65;;;;;;;-143.48;85.36;118439.88;5093638;28;20071;-72
2023/07/02 04:04:33;;;;;;;17.55;6.38;;;;;;;-143.48;84.19;118439.88;5075337;28;20428;-72
2023/07/02 04:06:59;;;;;;;24.52;7.13;;;;;;;-143.48;85.46;118439.88;5075094;28;20048;-73
2023/07/02 04:09:24;;;;;;;20.92;7.47;;;;;;;-143.48;84.84;118439.88;5075286;28;20115;-72
2023/07/02 04:11:49;;;;;;;23.38;6.93;;;;;;;-143.48;83.97;118439.88;5093547;28;20024;-72
2023/07/02 04:14:15;;;;;;;21.40;6.90;;;;;;;-143.48;84.03;118439.88;5093360;28;20535;-70
2023/07/02 04:16:41;;;;;;;23.73;7.30;;;;;;;-143.48;83.72;118439.88;5093348;28;20041;-72
2023/07/02 04:19:06;;;;;;;21.40;7.10;;;;;;;-143.48;83.93;118439.88;5075059;28;20024;-71
2023/07/02 04:21:32;;;;;;;28.27;6.68;;;;;;;-143.48;84.31;118439.88;5093260;28;20471;-73
2023/07/02 04:23:57;;;;;;;22.25;7.05;;;;;;;-143.48;82.80;118439.88;5093176;28;20024;-72
2023/07/02 04:26:24;;;;;;;26.05;7.05;;;;;;;-143.48;82.23;118439.88;5093181;28;20468;-71
2023/07/02 04:28:50;;;;;;;23.38;6.63;;;;;;;-143.48;81.45;118439.88;5093254;28;20386;-71
2023/07/02 04:31:15;;;;;;;23.90;6.97;;;;;;;-143.48;82.97;118439.88;5075056;28;20028;-72
2023/07/02 04:33:41;;;;;;;21.75;6.75;;;;;;;-143.48;82.52;118439.88;5093190;28;20030;-71
2023/07/02 04:36:06;;;;;;;29.55;7.55;;;;;;;-143.48;82.07;118439.88;5075018;28;20016;-71
2023/07/02 04:38:32;;;;;;;24.55;7.30;;;;;;;-143.48;82.07;118439.88;5075058;28;20056;-72
2023/07/02 04:41:05;;;;;;;31.77;7.45;;;;;;;-143.48;82.69;118439.88;5093008;28;20035;-73
2023/07/02 04:43:31;;;;;;;;;;;;;;;-143.48;84.02;118439.88;5093395;28;20050;-71
2023/07/02 04:45:57;;;;;;;23.63;6.80;;;;;;;-143.48;84.67;118439.88;5096581;28;19908;-71
2023/07/02 04:48:22;;;;;;;25.73;7.45;;;;;;;-143.48;83.26;118439.88;5078737;28;20490;-72
2023/07/02 04:50:48;;;;;;;22.98;6.82;;;;;;;-143.48;83.38;118439.88;5096910;28;20024;-72
2023/07/02 04:53:13;;;;;;;23.45;6.82;;;;;;;-143.48;81.13;118439.88;5096959;28;20062;-72
2023/07/02 04:55:38;;;;;;;21.75;6.38;;;;;;;-143.48;82.10;118439.88;5096982;28;20525;-73
2023/07/02 04:58:04;;;;;;;26.02;7.03;;;;;;;-143.48;79.03;118439.88;5078505;28;20114;-71
2023/07/02 05:00:29;;;;;;;24.48;6.43;;;;;;;-143.48;79.98;118439.88;5096754;28;20024;-73
2023/07/02 05:02:54;;;;;;;21.25;6.65;;;;;;;-143.48;81.36;118439.88;5096718;28;20127;-71
2023/07/02 05:05:19;;;;;;;24.70;6.93;;;;;;;-143.48;81.61;118439.88;5096685;28;20471;-71
2023/07/02 05:07:45;;;;;;;19.48;6.65;;;;;;;-143.48;79.54;118439.88;5096482;28;20050;-70
2023/07/02 05:10:10;;;;;;;22.33;6.03;;;;;;;-143.48;79.29;118439.88;5096514;28;20030;-71
2023/07/02 05:12:36;;;;;;;26.20;6.47;;;;;;;-143.48;78.37;118439.88;5096723;28;20031;-72
2023/07/02 05:15:01;;;;;;;23.65;6.18;;;;;;;-143.48;77.01;118439.88;5096526;28;20098;-72
2023/07/02 05:17:26;;;;;;;25.85;6.85;;;;;;;-143.48;77.50;118439.88;5078231;28;20028;-71
2023/07/02 05:19:52;;;;;;;24.83;6.18;;;;;;;-143.48;76.33;118439.88;5096366;28;20039;-72
2023/07/02 05:22:18;;;;;;;23.70;6.40;;;;;;;-143.48;75.33;118439.88;5096415;28;20085;-72
2023/07/02 05:24:43;;;;;;;24.13;5.78;;;;;;;-143.48;74.72;118439.88;5096215;28;20027;-72
2023/07/02 05:27:09;;;;;;;18.83;6.10;;;;;;;-143.48;76.26;118439.88;5078238;28;20046;-72
2023/07/02 05:29:34;;;;;;;19.20;5.60;;;;;;;-143.48;73.03;118439.88;5096252;28;20382;-72
2023/07/02 05:32:00;;;;;;;21.23;6.15;;;;;;;-143.48;74.11;118439.88;5077891;28;20016;-72
2023/07/02 05:34:25;;;;;;;18.48;5.75;;;;;;;-143.48;73.92;118439.88;5096090;28;20031;-71
2023/07/02 05:36:50;;;;;;;20.02;5.65;;;;;;;-143.48;72.22;118439.88;5096049;28;20107;-72
2023/07/02 05:39:16;;;;;;;20.20;6.43;;;;;;;-143.48;65.08;118439.88;5095853;28;20391;-72
2023/07/02 05:41:41;;;;;;;23.80;6.05;;;;;;;-143.48;57.21;118439.88;5095904;28;20081;-71
2023/07/02 05:44:06;;;;;;;20.30;5.85;;;;;;;-143.48;53.26;118439.88;5095981;28;20150;-71
2023/07/02 05:46:32;;;;;;;20.50;5.75;;;;;;;-143.48;50.46;118439.88;5077562;28;20046;-72
2023/07/02 05:48:57;;;;;;;19.08;6.18;;;;;;;-143.48;47.46;118439.88;5097749;28;20023;-76
2023/07/02 05:51:24;;;;;;;18.92;5.95;;;;;;;-143.48;47.18;118439.88;5097272;28;20052;-72
2023/07/02 05:53:50;;;;;;;17.52;5.55;;;;;;;-143.48;45.69;118439.88;5098264;28;20024;-72
2023/07/02 05:56:16;;;;;;;15.63;5.70;;;;;;;-143.48;45.07;118439.88;5104752;28;20062;-72
2023/07/02 05:58:41;;;;;;;19.10;5.72;;;;;;;-143.48;45.34;118439.88;5077875;28;20475;-72
2023/07/02 06:01:07;;;;;;;16.33;5.68;;;;;;;-143.48;44.13;118439.88;5096274;28;20054;-72
2023/07/02 06:03:32;;;;;;;13.55;5.45;;;;;;;-143.48;44.15;118439.88;5096450;28;20024;-72
2023/07/02 06:05:58;;;;;;;15.57;4.95;;;;;;;-143.48;45.02;118439.88;5095953;28;20024;-71
2023/07/02 06:08:23;;;;;;;14.20;5.18;;;;;;;-143.48;45.86;118439.88;5077732;28;20024;-72
2023/07/02 06:10:49;;;;;;;17.40;5.70;;;;;;;-143.48;46.02;118439.88;5077350;28;20387;-72
2023/07/02 06:13:14;;;;;;;17.77;6.22;;;;;;;-143.48;44.15;118439.88;5095291;28;20035;-72
2023/07/02 06:15:40;;;;;;;18.00;5.65;;;;;;;-143.48;48.42;118439.88;5077071;28;20391;-72
2023/07/02 06:18:06;;;;;;;24.20;6.00;;;;;;;-143.48;48.50;118439.88;5096345;28;20110;-72
2023/07/02 06:20:31;;;;;;;15.68;5.68;;;;;;;-143.48;44.12;118439.88;5077217;28;20480;-71
2023/07/02 06:22:56;;;;;;;19.27;5.90;;;;;;;-143.48;45.20;118439.88;5095201;28;20032;-71
2023/07/02 06:25:22;;;;;;;16.55;5.60;;;;;;;-143.48;46.29;118439.88;5095136;28;20421;-72
2023/07/02 06:27:47;;;;;;;25.15;6.22;;;;;;;-143.48;45.21;118439.88;5095072;28;20024;-72
2023/07/02 06:30:13;;;;;;;17.98;5.32;;;;;;;-143.48;44.59;118439.88;5095149;28;20475;-72
2023/07/02 06:32:38;;;;;;;17.65;6.15;;;;;;;-143.48;44.50;118439.88;5095010;28;20024;-72
2023/07/02 06:35:05;;;;;;;14.25;5.22;;;;;;;-143.48;45.34;118439.88;5100929;28;20020;-72
2023/07/02 06:37:31;;;;;;;22.90;6.10;;;;;;;-143.48;44.45;118439.88;5077468;28;20110;-72
2023/07/02 06:39:57;;;;;;;16.40;5.88;;;;;;;-143.48;51.17;118439.88;5077031;28;20052;-71
2023/07/02 06:42:22;;;;;;;21.00;5.80;;;;;;;-143.48;54.19;118439.88;5095463;28;20024;-72
2023/07/02 06:44:47;;;;;;;14.75;5.28;;;;;;;-143.48;49.85;118439.88;5095020;28;20027;-71
2023/07/02 06:47:12;;;;;;;14.55;5.20;;;;;;;-143.48;50.47;118439.88;5095319;28;20434;-72
2023/07/02 06:49:38;;;;;;;20.60;5.40;;;;;;;-143.48;49.19;118439.88;5080957;28;20021;-71
2023/07/02 06:52:03;;;;;;;21.67;5.13;;;;;;;-143.48;48.18;118439.88;5097665;28;20122;-72
2023/07/02 06:54:29;;;;;;;21.52;5.30;;;;;;;-143.48;48.42;118439.88;5094488;28;20027;-71
2023/07/02 06:56:54;;;;;;;19.13;5.32;;;;;;;-143.48;51.14;118439.88;5076231;28;20059;-71
2023/07/02 06:59:24;;;;;;;14.77;5.60;;;;;;;-143.48;48.67;118439.88;5094311;28;20399;-71
2023/07/02 07:01:50;;;;;;;16.38;5.55;;;;;;;-143.48;48.56;118439.88;5094412;28;20390;-72
2023/07/02 07:04:15;;;;;;;18.08;5.30;;;;;;;-143.48;48.82;118439.88;5076050;28;20024;-72
2023/07/02 07:06:42;;;;;;;16.00;5.13;;;;;;;-143.48;49.75;118439.88;5094331;28;20059;-72
2023/07/02 07:09:08;;;;;;;16.75;5.38;;;;;;;-143.48;50.21;118439.88;5076788;28;20024;-72
2023/07/02 07:11:33;;;;;;;15.60;4.97;;;;;;;-143.48;50.73;118439.88;5095209;28;20165;-72
2023/07/02 07:13:58;;;;;;;22.65;5.80;;;;;;;-143.48;48.74;118439.88;5075953;28;20027;-72
2023/07/02 07:16:24;;;;;;;19.20;4.95;;;;;;;-143.48;52.47;118439.88;5094693;28;20055;-72
2023/07/02 07:18:49;;;;;;;15.32;5.40;;;;;;;-143.48;51.79;118439.88;5075867;28;20055;-72
2023/07/02 07:21:14;;;;;;;15.77;5.10;;;;;;;-143.48;51.09;118439.88;5076129;28;20065;-71
2023/07/02 07:23:40;;;;;;;15.88;4.80;;;;;;;-143.48;51.34;118439.88;5075605;28;20023;-71
2023/07/02 07:26:06;;;;;;;14.70;4.80;;;;;;;-143.48;48.50;118439.88;5076148;28;20028;-71
2023/07/02 07:28:31;;;;;;;15.48;4.90;;;;;;;-143.48;47.15;118439.88;5076040;28;20024;-71
2023/07/02 07:30:56;;;;;;;13.73;4.60;;;;;;;-143.48;46.42;118439.88;5095456;28;20020;-72
2023/07/02 07:33:22;;;;;;;16.73;5.03;;;;;;;-143.48;47.00;118439.88;5094192;28;20053;-72
2023/07/02 07:35:47;;;;;;;17.08;4.65;;;;;;;-143.48;45.92;118439.88;5093736;28;20094;-72
2023/07/02 07:38:14;;;;;;;14.25;5.00;;;;;;;-143.48;45.26;118439.88;5095825;28;20531;-72
2023/07/02 07:40:39;;;;;;;13.70;4.50;;;;;;;-143.48;44.66;118439.88;5093599;28;20522;-70
2023/07/02 07:43:05;;;;;;;15.20;4.53;;;;;;;-143.48;47.69;118439.88;5074208;28;20027;-73
2023/07/02 07:45:30;;;;;;;15.77;4.90;;;;;;;-143.48;46.38;118439.88;5091902;28;20024;-71
2023/07/02 07:47:56;;;;;;;18.98;5.25;;;;;;;-143.48;46.42;118439.88;5092168;28;20111;-72
2023/07/02 07:50:21;;;;;;;17.60;4.80;;;;;;;-143.48;46.89;118439.88;5091668;28;20052;-72
2023/07/02 07:52:47;;;;;;;14.48;5.10;;;;;;;-143.48;50.34;118439.88;5091543;28;20020;-71
2023/07/02 07:55:13;;;;;;;17.25;5.22;;;;;;;-143.48;53.27;118439.88;5074341;28;20480;-73
2023/07/02 07:57:38;;;;;;;20.52;5.93;;;;;;;-143.48;53.04;118439.88;5093531;28;20112;-72
2023/07/02 08:00:07;;;;;;;12.80;5.13;;;;;;;-143.48;50.61;118439.88;5093359;28;20468;-72
2023/07/02 08:02:33;;;;;;;13.77;4.75;;;;;;;-143.48;49.22;118439.88;5095745;28;20044;-72
2023/07/02 08:04:58;;;;;;;15.40;4.70;;;;;;;-143.48;48.16;118439.88;5088263;28;20113;-76
2023/07/02 08:07:24;;;;;;;16.83;4.95;;;;;;;-143.48;50.52;118439.88;5098460;28;20048;-72
2023/07/02 08:09:49;;;;;;;18.40;5.40;;;;;;;-143.48;49.40;118439.88;5093418;28;20023;-72
2023/07/02 08:12:14;;;;;;;19.02;5.97;;;;;;;-143.48;51.09;118439.88;5093152;28;20048;-72
2023/07/02 08:14:40;;;;;;;17.65;5.05;;;;;;;-143.48;49.82;118439.88;5076344;28;20055;-72
2023/07/02 08:17:06;;;;;;;19.58;5.60;;;;;;;-143.48;50.52;118439.88;5094567;28;20024;-72
2023/07/02 08:19:31;;;;;;;15.48;5.38;;;;;;;-143.48;48.88;118439.88;5077013;28;20028;-72
2023/07/02 08:21:56;;;;;;;15.15;5.28;;;;;;;-143.48;47.58;118439.88;5097691;28;20436;-72
2023/07/02 08:24:21;;;;;;;16.75;5.30;;;;;;;-143.48;47.29;118439.88;5079519;28;20406;-72
2023/07/02 08:26:49;;;;;;;20.05;5.43;;;;;;;-143.48;47.00;118439.88;5097960;28;20422;-72
2023/07/02 08:29:14;;;;;;;20.25;5.30;;;;;;;-143.48;44.84;118439.88;5097723;28;20467;-72
2023/07/02 08:31:40;;;;;;;13.20;4.70;;;;;;;-143.48;44.59;118439.88;5090771;28;20050;-74
2023/07/02 08:34:05;;;;;;;13.00;5.65;;;;;;;-143.48;44.20;118439.88;5111165;28;20023;-72
2023/07/02 08:36:31;;;;;;;13.13;4.88;;;;;;;-143.48;44.93;118439.88;5103397;28;20026;-73
2023/07/02 08:38:56;;;;;;;16.05;5.28;;;;;;;-143.48;46.59;118439.88;5083180;28;20031;-72
2023/07/02 08:41:23;;;;;;;12.80;4.85;;;;;;;-143.48;46.77;118439.88;5104268;28;20027;-72
2023/07/02 08:43:49;;;;;;;13.95;4.72;;;;;;;-143.48;45.20;118439.88;5099360;28;20099;-72
2023/07/02 08:46:15;;;;;;;16.55;4.95;;;;;;;-143.48;44.64;118439.88;5101175;28;20028;-71
2023/07/02 08:48:41;;;;;;;19.15;5.50;;;;;;;-143.48;45.82;118439.88;5101567;28;20035;-73
2023/07/02 08:51:07;;;;;;;14.10;4.78;;;;;;;-143.48;44.48;118439.88;5105518;28;20024;-74
2023/07/02 08:53:33;;;;;;;15.40;4.75;;;;;;;-143.48;44.27;118439.88;5084117;28;20066;-75
2023/07/02 08:55:59;;;;;;;15.57;4.70;;;;;;;-143.48;44.83;118439.88;5089091;28;20024;-71
2023/07/02 08:58:25;;;;;;;13.73;4.78;;;;;;;-143.48;43.63;118439.88;5079645;28;20030;-73
2023/07/02 09:01:10;;;;;;;11.20;4.30;;;;;;;-143.48;43.26;118439.88;5097080;28;20103;-72
2023/07/02 09:03:37;;;;;;;13.55;4.60;;;;;;;-143.48;43.98;118439.88;5079414;28;20024;-72
2023/07/02 09:06:03;;;;;;;12.40;4.53;;;;;;;-143.48;41.62;118439.88;5103073;28;20030;-72
2023/07/02 09:08:29;;;;;;;11.85;4.10;;;;;;;-143.48;42.23;118439.88;5097034;28;20535;-72
2023/07/02 09:11:09;;;;;;;14.18;4.40;;;;;;;-143.48;44.12;118439.88;5097107;28;20044;-71
2023/07/02 09:13:44;;;;;;;17.02;4.25;;;;;;;-143.48;41.46;118439.88;5096576;28;20060;-72
2023/07/02 09:16:28;;;;;;;15.25;4.57;;;;;;;-143.48;41.47;118439.88;5096516;28;20542;-72
2023/07/02 09:19:08;;;;;;;11.95;3.97;;;;;;;-143.48;40.41;118439.88;5096747;28;20020;-72
2023/07/02 09:21:46;;;;;;;11.05;4.28;;;;;;;-143.48;40.02;118439.88;5096498;28;20035;-72
2023/07/02 09:24:20;;;;;;;13.65;4.05;;;;;;;-143.48;41.09;118439.88;5096469;28;20020;-72
2023/07/02 09:26:50;;;;;;;10.18;3.80;;;;;;;-143.48;39.90;118439.88;5096370;28;20048;-72
2023/07/02 09:29:30;;;;;;;12.65;4.00;;;;;;;-143.48;41.69;118439.88;5096278;28;20450;-71
2023/07/02 09:32:04;;;;;;;15.20;4.45;;;;;;;-143.48;43.08;118439.88;5096058;28;20028;-72
2023/07/02 09:34:34;;;;;;;8.43;3.53;;;;;;;-143.48;41.90;118439.88;5096072;28;20078;-71
2023/07/02 09:37:02;;;;;;;9.90;3.60;;;;;;;-143.48;40.27;118439.88;5096176;28;20032;-71
2023/07/02 09:39:31;;;;;;;12.55;3.75;;;;;;;-143.48;40.79;118439.88;5096229;28;20035;-71
2023/07/02 09:41:57;;;;;;;11.65;3.67;;;;;;;-143.48;41.13;118439.88;5078574;28;20077;-72
2023/07/02 09:44:29;;;;;;;13.25;3.53;;;;;;;-143.48;41.55;118439.88;5097429;28;20093;-73
2023/07/02 09:47:03;;;;;;;9.18;3.35;;;;;;;-143.48;40.68;118439.88;5078774;28;20396;-75
2023/07/02 09:49:36;;;;;;;9.77;3.67;;;;;;;-143.48;40.13;118439.88;5084785;28;20062;-72
2023/07/02 09:52:06;;;;;;;9.60;3.25;;;;;;;-143.48;40.37;118439.88;5102761;28;20528;-75
2023/07/02 09:54:32;;;;;;;8.25;3.35;;;;;;;-143.48;40.15;118439.88;5100868;28;20062;-72
2023/07/02 09:57:01;;;;;;;7.65;3.10;;;;;;;-143.48;37.99;118439.88;5100352;28;20016;-72
2023/07/02 09:59:27;;;;;;;9.32;3.38;;;;;;;-143.48;40.40;118439.88;5080299;28;20368;-69
2023/07/02 10:01:53;;;;;;;8.85;3.13;;;;;;;-143.48;38.76;118439.88;5084520;28;20086;-73
2023/07/02 10:04:20;;;;;;;10.65;3.55;;;;;;;-143.48;39.01;118439.88;5099667;28;20036;-70
2023/07/02 10:06:56;;;;;;;14.07;3.30;;;;;;;-143.48;39.76;118439.88;5080765;28;20411;-71
2023/07/02 10:09:37;;;;;;;13.55;3.33;;;;;;;-143.48;40.58;118439.88;5098603;28;20059;-69
2023/07/02 10:12:27;;;;;;;10.23;3.33;;;;;;;-143.48;40.38;118439.88;5099764;28;20042;-71
2023/07/02 10:14:54;;;;;;;10.13;3.28;;;;;;;-143.48;42.04;118439.88;5100123;28;20027;-72
2023/07/02 10:17:31;;;;;;;10.27;3.30;;;;;;;-143.48;40.13;118439.88;5098960;28;20024;-71
2023/07/02 10:20:00;;;;;;;11.40;3.65;;;;;;;-143.48;41.99;118439.88;5098245;28;20024;-69
2023/07/02 10:22:26;;;;;;;13.85;3.97;;;;;;;-143.48;43.41;118439.88;5079073;28;20047;-67
2023/07/02 10:25:00;;;;;;;10.70;3.50;;;;;;;-143.48;43.38;118439.88;5076969;28;20055;-68
2023/07/02 10:27:41;;;;;;;11.15;3.80;;;;;;;-143.48;41.65;118439.88;5076941;28;20024;-68
2023/07/02 10:30:08;;;;;;;10.30;3.47;;;;;;;-143.48;40.51;118439.88;5094916;28;20055;-68
2023/07/02 10:32:35;;;;;;;14.20;3.40;;;;;;;-143.48;41.78;118439.88;5076836;28;20031;-68
2023/07/02 10:35:04;;;;;;;8.32;3.05;;;;;;;-143.48;39.45;118439.88;5095202;28;20537;-72
2023/07/02 10:37:37;;;;;;;8.80;3.03;;;;;;;-143.48;38.79;118439.88;5094883;28;20409;-67
2023/07/02 10:40:07;;;;;;;8.00;3.03;;;;;;;-143.48;40.18;118439.88;5076887;28;20056;-67
2023/07/02 10:42:33;;;;;;;11.02;2.88;;;;;;;-143.48;41.12;118439.88;5094303;28;20360;-67
2023/07/02 10:44:59;;;;;;;10.18;3.25;;;;;;;-143.48;41.15;118439.88;5076548;28;20020;-66
2023/07/02 10:47:25;;;;;;;10.23;3.10;;;;;;;-143.48;40.59;118439.88;5076493;28;20024;-66
2023/07/02 10:49:50;;;;;;;9.68;3.30;;;;;;;-143.48;39.61;118439.88;5094656;28;20013;-67
2023/07/02 10:52:16;;;;;;;9.45;3.40;;;;;;;-143.48;39.94;118439.88;5094653;28;20030;-68
2023/07/02 10:54:45;;;;;;;7.05;3.38;;;;;;;-143.48;39.55;118439.88;5094609;28;20024;-67
2023/07/02 10:57:12;;;;;;;10.43;3.45;;;;;;;-143.48;41.47;118439.88;5076522;28;20115;-67
2023/07/02 10:59:38;;;;;;;8.35;3.58;;;;;;;-143.48;39.90;118439.88;5094863;28;20016;-67